Time;durP1;ratioP1;P1;durP2;ratioP2;P2;SDS_P1;SDS_P2;PMS_P1;PMS_P2;Temp;Humidity;BMP_temperature;BMP_pressure;BME280_temperature;BME280_humidity;BME280_pressure;Samples;Min_cycle;Max_cycle;Signal;HPM_P1;HPM_P2
2022/07/11 00:01:13;;;;;;;9.07;3.20;;;15.00;99.90;;;;;;6159747;23;20028;-89
2022/07/11 00:03:48;;;;;;;12.77;3.30;;;15.90;99.90;;;;;;6185556;23;20405;-89
2022/07/11 00:06:16;;;;;;;9.27;3.40;;;16.50;99.90;;;;;;6185090;23;20025;-89
2022/07/11 00:08:45;;;;;;;9.52;3.47;;;15.40;99.90;;;;;;6184608;23;20013;-90
2022/07/11 00:11:14;;;;;;;11.88;2.90;;;15.40;99.90;;;;;;6184543;23;20021;-89
2022/07/11 00:13:46;;;;;;;9.00;3.22;;;16.50;99.90;;;;;;6185611;23;20013;-89
2022/07/11 00:16:17;;;;;;;8.77;3.05;;;15.30;99.90;;;;;;6159093;23;20013;-89
2022/07/11 00:18:46;;;;;;;10.95;3.22;;;15.20;99.90;;;;;;6158344;23;20031;-89
2022/07/11 00:21:12;;;;;;;10.52;3.17;;;15.20;99.90;;;;;;6159333;23;20017;-89
2022/07/11 00:23:43;;;;;;;9.60;3.25;;;15.20;99.90;;;;;;6186175;23;20023;-89
2022/07/11 00:26:12;;;;;;;10.57;3.20;;;16.30;99.90;;;;;;6184798;23;20064;-89
2022/07/11 00:28:50;;;;;;;9.10;3.10;;;16.00;99.90;;;;;;6158927;23;20024;-89
2022/07/11 00:31:21;;;;;;;8.50;2.78;;;16.40;99.90;;;;;;6158665;23;20447;-89
2022/07/11 00:33:47;;;;;;;10.48;3.28;;;16.10;99.90;;;;;;6184837;23;20020;-89
2022/07/11 00:36:12;;;;;;;8.55;3.15;;;15.20;99.90;;;;;;6159351;23;20100;-89
2022/07/11 00:39:03;;;;;;;8.40;3.20;;;15.90;99.90;;;;;;6158469;23;20032;-89
2022/07/11 00:41:29;;;;;;;10.90;3.00;;;15.20;99.90;;;;;;6156311;23;20026;-89
2022/07/11 00:43:59;;;;;;;9.70;2.85;;;16.20;99.90;;;;;;6160009;23;20014;-90
2022/07/11 00:46:29;;;;;;;10.52;2.85;;;16.20;99.90;;;;;;6174709;23;20025;-89
2022/07/11 00:48:59;;;;;;;8.48;3.03;;;15.80;99.90;;;;;;6174563;23;20013;-89
2022/07/11 00:51:37;;;;;;;9.55;2.92;;;14.70;99.90;;;;;;6130379;23;20040;-89
2022/07/11 00:54:10;;;;;;;8.77;3.13;;;15.70;99.90;;;;;;6129717;23;20014;-89
2022/07/11 00:56:36;;;;;;;8.48;2.85;;;14.80;99.90;;;;;;6130530;23;20080;-90
2022/07/11 00:59:02;;;;;;;8.30;2.92;;;15.90;99.90;;;;;;6146510;23;20371;-89
2022/07/11 01:01:28;;;;;;;9.13;3.00;;;15.20;99.90;;;;;;6185057;23;20017;-89
2022/07/11 01:03:54;;;;;;;8.88;2.70;;;16.10;99.90;;;;;;6158474;23;20024;-90
2022/07/11 01:06:23;;;;;;;9.40;2.85;;;15.50;99.90;;;;;;6158856;23;20024;-89
2022/07/11 01:08:55;;;;;;;8.98;3.13;;;16.40;99.90;;;;;;6157504;23;20028;-89
2022/07/11 01:11:21;;;;;;;10.65;2.80;;;16.10;99.90;;;;;;6185246;23;20010;-89
2022/07/11 01:13:47;;;;;;;8.50;2.80;;;15.20;99.90;;;;;;6184539;23;20021;-90
2022/07/11 01:16:22;;;;;;;9.85;3.10;;;15.10;99.90;;;;;;6184774;23;20017;-89
2022/07/11 01:19:13;;;;;;;11.00;2.90;;;15.20;99.90;;;;;;6185139;23;20047;-89
2022/07/11 01:21:50;;;;;;;10.65;3.00;;;15.60;99.90;;;;;;6183875;23;20017;-89
2022/07/11 01:24:21;;;;;;;8.57;3.00;;;15.10;99.90;;;;;;6159970;23;20450;-89
2022/07/11 01:26:48;;;;;;;7.45;2.67;;;15.10;99.90;;;;;;6184640;23;20014;-89
2022/07/11 01:29:14;;;;;;;8.68;2.67;;;15.90;99.90;;;;;;6157253;23;20464;-89
2022/07/11 01:31:44;;;;;;;9.45;2.95;;;16.40;99.90;;;;;;6185302;23;20013;-89
2022/07/11 01:34:20;;;;;;;6.75;2.58;;;15.80;99.90;;;;;;6186008;23;20017;-89
2022/07/11 01:36:51;;;;;;;9.73;3.00;;;15.10;99.90;;;;;;6157229;23;20025;-89
2022/07/11 01:39:18;;;;;;;8.48;3.10;;;15.10;99.90;;;;;;6184742;23;20017;-90
2022/07/11 01:41:47;;;;;;;8.45;3.00;;;15.80;99.90;;;;;;6159444;23;20017;-90
2022/07/11 01:44:18;;;;;;;11.48;2.88;;;15.00;99.90;;;;;;6186021;23;20115;-89
2022/07/11 01:46:44;;;;;;;7.80;2.90;;;15.70;99.90;;;;;;6186367;23;20013;-89
2022/07/11 01:49:13;;;;;;;9.32;2.83;;;15.10;99.90;;;;;;6159216;23;20095;-89
2022/07/11 01:52:47;;;;;;;8.77;2.92;;;16.20;99.90;;;;;;6185058;23;20017;-89
2022/07/11 01:56:21;;;;;;;8.18;2.40;;;14.40;99.90;;;;;;6160198;23;20341;-90
2022/07/11 01:58:51;;;;;;;9.43;2.65;;;15.00;99.90;;;;;;6159074;23;20088;-90
2022/07/11 02:01:20;;;;;;;9.70;2.70;;;14.90;99.90;;;;;;6186239;23;20041;-89
2022/07/11 02:03:49;;;;;;;7.97;2.80;;;15.00;99.90;;;;;;6158631;23;20024;-89
2022/07/11 02:06:19;;;;;;;9.38;2.55;;;14.90;99.90;;;;;;6159591;23;20021;-89
2022/07/11 02:08:49;;;;;;;9.18;2.70;;;14.80;99.90;;;;;;6146658;23;20030;-90
2022/07/11 02:11:16;;;;;;;7.13;2.40;;;14.90;99.90;;;;;;6127938;23;20079;-90
2022/07/11 02:13:42;;;;;;;7.13;2.55;;;14.90;99.90;;;;;;6156387;23;20311;-89
2022/07/11 02:16:08;;;;;;;7.10;2.65;;;15.20;99.90;;;;;;6130680;23;20022;-89
2022/07/11 02:18:34;;;;;;;10.23;2.63;;;14.80;99.90;;;;;;6129971;23;20027;-89
2022/07/11 02:21:19;;;;;;;7.65;2.58;;;16.10;99.90;;;;;;6130792;23;20025;-90
2022/07/11 02:23:48;;;;;;;9.57;2.58;;;15.60;99.90;;;;;;6130280;23;20029;-89
2022/07/11 02:26:31;;;;;;;6.85;2.40;;;14.90;99.90;;;;;;6129825;23;20339;-89
2022/07/11 02:28:57;;;;;;;7.73;2.37;;;15.40;99.90;;;;;;6129991;23;20022;-90
2022/07/11 02:31:23;;;;;;;9.13;2.72;;;14.10;99.90;;;;;;6157349;23;20326;-89
2022/07/11 02:36:23;;;;;;;9.27;2.88;;;14.90;99.90;;;;;;6154650;23;20754;-89
2022/07/11 02:39:08;;;;;;;7.82;2.50;;;15.50;99.90;;;;;;6155882;23;20028;-89
2022/07/11 02:41:33;;;;;;;8.32;2.60;;;15.50;99.90;;;;;;6156992;23;20339;-90
2022/07/11 02:43:59;;;;;;;7.63;2.72;;;14.90;99.90;;;;;;6154800;23;20017;-89
2022/07/11 02:46:25;;;;;;;9.80;2.92;;;16.00;99.90;;;;;;6154099;23;20064;-89
2022/07/11 02:48:50;;;;;;;9.55;2.70;;;15.40;99.90;;;;;;6154485;23;20029;-89
2022/07/11 02:51:16;;;;;;;9.30;2.80;;;14.90;99.90;;;;;;6156898;23;20430;-89
2022/07/11 02:53:45;;;;;;;9.75;3.08;;;15.80;99.90;;;;;;6153828;23;20169;-89
2022/07/11 02:56:13;;;;;;;7.40;2.45;;;15.20;99.90;;;;;;6156674;23;20026;-89
2022/07/11 02:58:39;;;;;;;8.38;2.50;;;15.90;99.90;;;;;;6156966;23;20021;-90
2022/07/11 03:01:11;;;;;;;7.40;2.60;;;15.80;99.90;;;;;;6155901;23;20494;-90
2022/07/11 03:03:36;;;;;;;9.32;2.92;;;14.70;99.90;;;;;;6155144;23;20045;-89
2022/07/11 03:06:02;;;;;;;10.23;2.75;;;15.40;99.90;;;;;;6156181;23;20021;-89
2022/07/11 03:08:28;;;;;;;9.13;2.90;;;14.80;99.90;;;;;;6154683;23;20474;-89
2022/07/11 03:11:07;;;;;;;7.75;2.72;;;15.80;99.90;;;;;;6154510;23;20092;-89
2022/07/11 03:13:53;;;;;;;9.55;3.17;;;14.70;99.90;;;;;;6156000;23;20021;-90
2022/07/11 03:16:25;;;;;;;7.80;2.65;;;15.70;99.90;;;;;;6157941;23;20013;-90
2022/07/11 03:18:51;;;;;;;8.07;2.92;;;15.80;99.90;;;;;;6156588;23;20018;-89
2022/07/11 03:21:32;;;;;;;9.00;3.10;;;15.60;99.90;;;;;;6152221;23;20014;-88
2022/07/11 03:38:20;;;;;;;7.80;2.70;;;15.80;99.90;;;;;;6157230;23;20017;-90
2022/07/11 03:40:47;;;;;;;8.32;2.88;;;14.60;99.90;;;;;;6161840;23;20049;-90
2022/07/11 03:43:24;;;;;;;7.57;2.80;;;15.70;99.90;;;;;;6168486;23;20052;-89
2022/07/11 03:45:50;;;;;;;8.75;2.92;;;14.10;99.90;;;;;;6175130;23;20048;-90
2022/07/11 03:48:18;;;;;;;8.25;2.60;;;14.80;99.90;;;;;;6155366;23;20022;-90
2022/07/11 03:50:48;;;;;;;7.10;2.60;;;15.70;99.90;;;;;;6154247;23;20054;-89
2022/07/11 03:53:14;;;;;;;8.65;2.50;;;14.00;99.90;;;;;;6154534;23;20029;-89
2022/07/11 03:55:42;;;;;;;7.60;2.40;;;14.90;99.90;;;;;;6156125;23;20025;-87
2022/07/11 03:59:09;;;;;;;6.80;2.20;;;15.10;99.90;;;;;;6152858;23;20021;-88
2022/07/11 04:01:34;;;;;;;7.07;2.35;;;14.80;99.90;;;;;;6152745;23;20049;-88
2022/07/11 04:04:05;;;;;;;6.80;2.50;;;14.10;99.90;;;;;;6154819;23;20021;-88
2022/07/11 04:06:33;;;;;;;7.60;2.50;;;14.80;99.90;;;;;;6152742;23;20048;-88
2022/07/11 04:09:08;;;;;;;7.35;2.83;;;15.90;99.90;;;;;;6156905;23;20017;-89
2022/07/11 04:11:55;;;;;;;7.50;2.50;;;15.50;99.90;;;;;;6184556;23;20013;-89
2022/07/11 04:14:21;;;;;;;7.28;2.33;;;16.10;99.90;;;;;;6133705;23;20048;-88
2022/07/11 04:16:46;;;;;;;9.27;2.60;;;15.30;99.90;;;;;;6154842;23;20029;-89
2022/07/11 04:19:18;;;;;;;7.28;2.40;;;15.10;99.90;;;;;;6128018;23;20029;-89
2022/07/11 04:21:44;;;;;;;7.22;2.40;;;14.80;99.90;;;;;;6128529;23;20017;-88
2022/07/11 04:24:09;;;;;;;7.60;2.50;;;15.70;99.90;;;;;;6154963;23;20080;-89
2022/07/11 04:26:38;;;;;;;6.70;2.50;;;14.90;99.90;;;;;;6156312;23;20014;-89
2022/07/11 04:29:07;;;;;;;7.00;2.40;;;15.90;99.90;;;;;;6128919;23;20017;-88
2022/07/11 04:31:36;;;;;;;6.50;2.15;;;15.00;99.90;;;;;;6128736;23;20068;-88
2022/07/11 04:34:02;;;;;;;6.60;2.28;;;15.50;99.90;;;;;;6173198;23;20048;-89
2022/07/11 04:36:30;;;;;;;6.78;2.40;;;16.10;99.90;;;;;;6159578;23;20013;-88
2022/07/11 04:39:48;;;;;;;7.05;2.33;;;16.10;99.90;;;;;;6158397;23;20044;-89
2022/07/11 04:42:14;;;;;;;7.38;2.70;;;15.10;99.90;;;;;;6158677;23;20028;-88
2022/07/11 04:44:39;;;;;;;6.60;2.30;;;16.10;99.90;;;;;;6158984;23;20095;-88
2022/07/11 04:47:14;;;;;;;8.05;2.50;;;15.60;99.90;;;;;;6158326;23;20385;-89
2022/07/11 04:49:46;;;;;;;9.15;2.70;;;15.50;99.90;;;;;;6186139;23;20032;-89
2022/07/11 04:52:30;;;;;;;7.28;2.20;;;15.40;99.90;;;;;;6184674;23;20052;-89
2022/07/11 04:55:02;;;;;;;;;;;15.00;99.90;;;;;;6185174;23;20124;-89
2022/07/11 04:57:43;;;;;;;7.55;2.60;;;15.30;99.90;;;;;;6158453;23;19924;-89
2022/07/11 05:00:09;;;;;;;7.45;2.70;;;15.80;99.90;;;;;;6157458;23;20075;-89
2022/07/11 05:02:55;;;;;;;7.25;2.85;;;15.20;99.90;;;;;;6184548;23;20453;-89
2022/07/11 05:05:35;;;;;;;8.85;2.63;;;16.20;99.90;;;;;;6185271;23;20052;-89
2022/07/11 05:08:01;;;;;;;8.23;2.75;;;15.30;99.90;;;;;;6157415;23;20056;-89
2022/07/11 05:10:27;;;;;;;8.30;3.13;;;16.10;99.90;;;;;;6161292;23;20017;-89
2022/07/11 05:12:52;;;;;;;8.45;2.80;;;16.00;99.90;;;;;;6184711;23;20092;-89
2022/07/11 05:15:18;;;;;;;7.80;2.70;;;16.20;99.90;;;;;;6184135;23;20379;-89
2022/07/11 05:17:59;;;;;;;7.55;2.60;;;15.60;99.90;;;;;;6188134;23;20017;-88
2022/07/11 05:20:24;;;;;;;8.52;2.53;;;16.80;99.90;;;;;;6160681;23;20024;-89
2022/07/11 05:22:50;;;;;;;7.03;2.53;;;16.10;99.90;;;;;;6160252;23;20017;-89
2022/07/11 05:25:18;;;;;;;7.50;2.65;;;16.60;99.90;;;;;;6160586;23;20017;-89
2022/07/11 05:27:46;;;;;;;7.03;2.28;;;15.70;99.90;;;;;;6159200;23;20067;-88
2022/07/11 05:30:12;;;;;;;6.70;2.38;;;15.40;99.90;;;;;;6160872;23;20549;-89
2022/07/11 05:32:43;;;;;;;6.97;2.20;;;15.90;99.90;;;;;;6184907;23;20017;-89
2022/07/11 05:35:12;;;;;;;7.60;2.20;;;15.60;99.90;;;;;;6125437;23;20026;-88
2022/07/11 05:37:56;;;;;;;7.18;2.20;;;15.60;99.90;;;;;;6149801;23;20033;-89
2022/07/11 05:41:26;;;;;;;8.00;2.40;;;15.60;99.90;;;;;;6161232;23;20021;-89
2022/07/11 05:43:51;;;;;;;6.63;2.35;;;15.30;99.90;;;;;;6159589;23;20384;-89
2022/07/11 05:46:39;;;;;;;7.07;2.25;;;16.60;99.90;;;;;;6186180;23;20465;-91
2022/07/11 05:49:25;;;;;;;6.32;2.08;;;15.50;99.90;;;;;;6173617;23;20017;-90
2022/07/11 05:52:10;;;;;;;6.47;2.03;;;15.40;99.90;;;;;;6101489;23;20048;-91
2022/07/11 05:54:39;;;;;;;5.90;2.00;;;16.20;99.90;;;;;;6126835;23;20017;-94
2022/07/11 05:57:05;;;;;;;6.32;2.00;;;15.40;99.90;;;;;;6101211;23;20024;-90
2022/07/11 05:59:38;;;;;;;6.40;2.00;;;15.40;99.90;;;;;;6101691;23;20053;-93
2022/07/11 06:02:09;;;;;;;6.45;2.00;;;16.50;99.90;;;;;;6127552;23;20010;-91
2022/07/11 06:04:35;;;;;;;5.78;1.90;;;16.80;99.90;;;;;;6127143;23;20373;-91
2022/07/11 06:10:29;;;;;;;6.93;2.10;;;15.60;99.90;;;;;;6156436;23;20032;-90
2022/07/11 06:12:55;;;;;;;6.07;1.98;;;16.90;99.90;;;;;;6130567;23;20021;-85
2022/07/11 06:15:29;;;;;;;5.22;1.80;;;15.90;99.90;;;;;;6157883;23;20092;-92
2022/07/11 06:17:58;;;;;;;6.28;1.95;;;17.10;99.90;;;;;;6156961;23;20025;-93
2022/07/11 06:20:23;;;;;;;5.82;1.90;;;16.20;99.90;;;;;;6131980;23;20080;-93
2022/07/11 06:22:53;;;;;;;7.28;2.10;;;16.30;99.90;;;;;;6131395;23;20088;-91
2022/07/11 06:25:20;;;;;;;6.75;2.00;;;16.20;99.90;;;;;;6132586;23;20089;-94
2022/07/11 06:27:54;;;;;;;5.75;1.77;;;17.30;99.90;;;;;;6130648;23;20022;-96
2022/07/11 06:30:20;;;;;;;5.30;1.70;;;16.60;99.90;;;;;;6130911;23;20485;-91
2022/07/11 06:32:46;;;;;;;5.53;1.60;;;15.20;99.90;;;;;;6132154;23;20021;-93
2022/07/11 06:35:18;;;;;;;4.40;1.55;;;16.50;99.90;;;;;;6130993;23;20378;-92
2022/07/11 06:37:52;;;;;;;5.38;1.70;;;17.20;99.90;;;;;;6130876;23;20020;-94
2022/07/11 06:40:18;;;;;;;5.93;1.60;;;16.80;99.90;;;;;;6159584;23;20450;-94
2022/07/11 06:42:44;;;;;;;4.65;1.60;;;15.90;99.90;;;;;;6157906;23;20025;-95
2022/07/11 06:45:10;;;;;;;4.85;1.60;;;17.10;99.90;;;;;;6158835;23;20029;-94
2022/07/11 06:47:36;;;;;;;4.38;1.50;;;16.40;99.90;;;;;;6141416;23;20045;-94
2022/07/11 06:50:04;;;;;;;2.65;1.25;;;17.00;99.90;;;;;;6136408;23;20025;-93
2022/07/11 06:52:33;;;;;;;4.00;1.30;;;16.50;99.90;;;;;;6133395;23;20052;-95
2022/07/11 06:54:59;;;;;;;3.58;1.40;;;17.20;99.90;;;;;;6157709;23;20021;-94
2022/07/11 06:57:26;;;;;;;2.92;1.25;;;16.40;99.90;;;;;;6156277;23;20017;-93
2022/07/11 07:00:02;;;;;;;;;;;;;;;;;;;;;
2022/07/11 07:02:38;;;;;;;3.40;1.20;;;16.40;99.90;;;;;;6051198;23;20023;-94
2022/07/11 07:05:05;;;;;;;4.35;1.30;;;15.90;99.90;;;;;;6073676;23;20018;-94
2022/07/11 07:07:36;;;;;;;2.70;1.10;;;16.60;99.90;;;;;;6150342;23;20093;-95
2022/07/11 07:10:53;;;;;;;3.75;1.20;;;16.70;99.90;;;;;;6155159;23;20319;-95
2022/07/11 07:14:10;;;;;;;2.80;1.20;;;16.30;99.90;;;;;;6166452;23;20022;-94
2022/07/11 07:16:36;;;;;;;3.13;1.10;;;16.80;99.90;;;;;;6155233;23;20521;-93
2022/07/11 07:19:20;;;;;;;3.40;1.10;;;16.80;99.90;;;;;;6155409;23;20025;-93
2022/07/11 07:24:25;;;;;;;2.47;0.93;;;16.80;99.90;;;;;;6229891;23;20392;-96
2022/07/11 07:26:57;;;;;;;2.53;1.10;;;15.90;99.90;;;;;;6195642;23;20496;-93
2022/07/11 07:29:26;;;;;;;2.85;1.00;;;17.30;99.90;;;;;;6217619;23;20016;-93
2022/07/11 07:32:05;;;;;;;2.50;1.20;;;16.20;99.90;;;;;;6217027;23;20020;-92
2022/07/11 07:34:32;;;;;;;2.47;1.10;;;16.80;99.90;;;;;;6191585;23;20023;-94
2022/07/11 07:36:58;;;;;;;2.10;1.17;;;16.80;99.90;;;;;;6190834;23;20074;-92
2022/07/11 07:39:38;;;;;;;3.13;1.20;;;17.80;99.90;;;;;;6218023;23;20052;-95
2022/07/11 07:42:04;;;;;;;2.05;0.98;;;18.40;99.90;;;;;;6217731;23;20087;-95
2022/07/11 07:44:39;;;;;;;3.95;1.10;;;17.30;99.90;;;;;;6218427;23;20453;-96
2022/07/11 07:47:08;;;;;;;3.25;1.20;;;17.20;99.90;;;;;;6217797;23;20024;-95
2022/07/11 07:49:36;;;;;;;4.47;1.30;;;17.60;99.90;;;;;;6191076;23;20019;-95
2022/07/11 07:52:14;;;;;;;5.10;1.38;;;17.90;99.90;;;;;;6218443;23;20468;-95
2022/07/11 07:55:06;;;;;;;3.42;1.30;;;18.20;99.90;;;;;;6191315;23;20008;-95
2022/07/11 07:57:35;;;;;;;4.22;1.35;;;17.10;99.90;;;;;;6189908;23;20464;-94
2022/07/11 08:03:06;;;;;;;2.72;1.20;;;17.00;99.90;;;;;;6219795;23;20020;-95
2022/07/11 08:05:32;;;;;;;6.03;1.40;;;17.80;99.90;;;;;;6219460;23;20012;-96
2022/07/11 08:08:13;;;;;;;3.25;1.20;;;17.10;99.90;;;;;;6191804;23;20008;-95
2022/07/11 08:10:39;;;;;;;2.65;1.25;;;16.90;99.90;;;;;;6218452;23;20461;-94
2022/07/11 08:16:18;;;;;;;1.35;1.00;;;18.50;99.90;;;;;;6138878;23;20021;-94
2022/07/11 08:18:46;;;;;;;2.83;1.30;;;16.90;99.90;;;;;;6216706;23;20058;-94
2022/07/11 08:21:18;;;;;;;2.25;1.10;;;18.30;99.90;;;;;;6153542;23;20017;-90
2022/07/11 08:23:54;;;;;;;2.47;1.10;;;18.60;99.90;;;;;;6155402;23;20335;-94
2022/07/11 08:26:20;;;;;;;2.70;1.20;;;18.60;99.90;;;;;;6155416;23;20020;-95
2022/07/11 08:28:48;;;;;;;2.30;1.08;;;18.00;99.90;;;;;;6156091;23;20045;-95
2022/07/11 08:31:14;;;;;;;1.90;1.10;;;17.70;99.90;;;;;;6155705;23;20053;-94
2022/07/11 08:33:39;;;;;;;3.30;1.20;;;16.50;99.90;;;;;;6154851;23;20017;-92
2022/07/11 08:36:14;;;;;;;2.80;1.20;;;17.80;99.90;;;;;;6131163;23;20080;-95
2022/07/11 08:38:43;;;;;;;3.25;1.13;;;17.90;99.90;;;;;;6154324;23;20017;-93
2022/07/11 08:41:11;;;;;;;3.25;1.10;;;18.60;99.90;;;;;;6154428;23;20092;-94
2022/07/11 08:43:37;;;;;;;1.55;0.93;;;18.40;99.90;;;;;;6154878;23;20025;-93
2022/07/11 08:46:10;;;;;;;1.58;1.00;;;17.60;99.90;;;;;;6153287;23;20014;-94
2022/07/11 08:48:42;;;;;;;3.08;1.20;;;17.70;99.90;;;;;;6154785;23;20014;-94
2022/07/11 08:51:08;;;;;;;3.03;1.25;;;18.50;99.90;;;;;;6155646;23;20009;-94
2022/07/11 08:53:43;;;;;;;0.80;0.80;;;17.90;99.90;;;;;;6154175;23;20096;-94
2022/07/11 08:56:29;;;;;;;;;;;;;;;;;;;;;
2022/07/11 08:59:17;;;;;;;2.03;1.00;;;18.10;99.90;;;;;;6156309;23;20096;-94
2022/07/11 09:01:48;;;;;;;1.88;1.10;;;18.50;99.90;;;;;;6155175;23;20021;-94
2022/07/11 09:04:15;;;;;;;3.00;1.20;;;18.20;99.90;;;;;;6161517;23;20021;-94
2022/07/11 09:06:50;;;;;;;1.77;0.90;;;18.70;99.90;;;;;;6159429;23;20076;-92
2022/07/11 09:09:15;;;;;;;1.95;0.90;;;18.90;99.90;;;;;;6158398;23;20088;-93
2022/07/11 09:12:12;;;;;;;2.45;1.00;;;19.30;99.90;;;;;;6158045;23;20383;-92
2022/07/11 09:14:45;;;;;;;2.28;1.10;;;18.30;99.90;;;;;;6041205;23;20018;-93
2022/07/11 09:17:11;;;;;;;3.15;1.08;;;18.10;99.90;;;;;;6065487;23;20034;-94
2022/07/11 09:19:45;;;;;;;5.28;1.10;;;19.50;99.90;;;;;;6106329;23;20018;-93
2022/07/11 09:25:24;;;;;;;1.25;1.00;;;18.80;99.90;;;;;;6155938;23;20116;-91
2022/07/11 09:28:16;;;;;;;1.77;1.02;;;18.60;99.90;;;;;;6153713;23;20014;-92
2022/07/11 09:30:45;;;;;;;1.83;1.00;;;19.10;99.90;;;;;;6145303;23;20021;-91
2022/07/11 09:33:12;;;;;;;0.80;0.80;;;18.70;99.90;;;;;;6155228;23;20093;-91
2022/07/11 09:35:45;;;;;;;1.75;0.82;;;19.30;99.90;;;;;;6130224;23;20028;-92
2022/07/11 09:38:34;;;;;;;1.48;0.80;;;19.30;99.90;;;;;;6149116;23;20009;-92
2022/07/11 09:41:24;;;;;;;1.05;0.90;;;17.70;99.90;;;;;;6198013;23;20040;-90
2022/07/11 09:44:24;;;;;;;1.00;0.90;;;18.40;99.90;;;;;;6145713;23;20005;-90
2022/07/11 09:47:17;;;;;;;0.70;0.70;;;18.40;99.90;;;;;;6185646;23;20019;-91
2022/07/11 09:53:16;;;;;;;0.95;0.70;;;18.90;99.90;;;;;;6186767;23;20036;-89
2022/07/11 09:56:42;;;;;;;0.80;0.80;;;19.30;99.90;;;;;;6156930;23;20013;-88
2022/07/11 10:03:38;;;;;;;1.33;1.00;;;19.20;99.90;;;;;;6183022;23;20075;-90
2022/07/11 10:06:10;;;;;;;2.55;1.20;;;18.90;99.90;;;;;;6186863;23;20029;-91
2022/07/11 10:08:43;;;;;;;3.28;1.20;;;19.00;99.90;;;;;;6085026;23;20108;-90
2022/07/11 10:11:19;;;;;;;1.48;1.00;;;19.00;99.90;;;;;;6160252;23;20017;-90
2022/07/11 10:14:23;;;;;;;1.80;1.00;;;18.90;99.90;;;;;;6159260;23;20014;-89
2022/07/11 10:17:26;;;;;;;3.25;1.20;;;18.90;99.90;;;;;;6184414;23;20330;-87
2022/07/11 10:20:29;;;;;;;2.67;1.08;;;18.80;99.90;;;;;;6186501;23;20044;-91
2022/07/11 10:23:32;;;;;;;2.47;1.25;;;18.70;99.90;;;;;;6159411;23;20073;-88
2022/07/11 10:26:47;;;;;;;4.30;1.20;;;18.60;99.90;;;;;;6186650;23;20108;-89
2022/07/11 10:29:34;;;;;;;3.22;1.10;;;18.50;99.90;;;;;;6160631;23;20024;-89
2022/07/11 10:32:16;;;;;;;2.42;1.20;;;18.60;99.90;;;;;;6158838;23;20259;-89
2022/07/11 10:34:52;;;;;;;;;;;;;;;;;;;;;
2022/07/11 10:41:27;;;;;;;1.88;1.17;;;18.80;99.90;;;;;;6159681;23;20036;-88
2022/07/11 10:44:13;;;;;;;3.08;1.20;;;19.00;99.90;;;;;;6083882;23;20017;-90
2022/07/11 10:46:39;;;;;;;4.13;1.20;;;19.20;99.90;;;;;;6157128;23;20052;-91
2022/07/11 10:49:35;;;;;;;2.38;1.10;;;19.40;99.90;;;;;;6108176;23;20048;-88
2022/07/11 10:52:25;;;;;;;2.17;1.10;;;19.60;99.90;;;;;;6127772;23;20026;-89
2022/07/11 10:55:49;;;;;;;3.47;1.38;;;20.60;99.90;;;;;;6110508;23;20055;-89
2022/07/11 10:59:07;;;;;;;2.88;1.10;;;19.70;99.90;;;;;;6011361;23;20092;-91
2022/07/11 11:02:07;;;;;;;2.20;1.17;;;19.40;99.90;;;;;;5986365;23;20028;-90
2022/07/11 11:05:10;;;;;;;4.05;1.35;;;19.20;99.90;;;;;;5985208;23;20450;-90
2022/07/11 11:10:34;;;;;;;2.20;1.20;;;19.10;99.90;;;;;;6211994;23;20021;-91
2022/07/11 11:15:51;;;;;;;3.67;1.40;;;19.20;99.90;;;;;;6155858;23;20038;-92
2022/07/11 11:22:33;;;;;;;2.33;1.23;;;19.90;99.90;;;;;;6161948;23;20115;-89
2022/07/11 11:28:04;;;;;;;2.92;1.17;;;20.10;99.90;;;;;;6182024;23;20028;-89
2022/07/11 11:31:05;;;;;;;2.75;1.00;;;20.10;99.90;;;;;;6159929;23;20372;-93
2022/07/11 11:33:52;;;;;;;1.85;1.20;;;20.00;99.90;;;;;;6108654;23;20028;-90
2022/07/11 11:36:35;;;;;;;1.10;1.00;;;20.10;99.90;;;;;;6169423;23;20067;-91
2022/07/11 11:39:32;;;;;;;2.40;1.20;;;19.70;99.90;;;;;;6158884;23;20021;-91
2022/07/11 12:29:33;;;;;;;2.95;1.30;;;20.20;99.90;;;;;;6095798;23;20021;-93
2022/07/11 12:39:30;;;;;;;2.25;1.20;;;20.10;99.90;;;;;;6070109;23;20047;-92
2022/07/11 12:50:35;;;;;;;1.33;1.08;;;20.50;99.90;;;;;;6192462;23;20386;-93
2022/07/11 12:53:51;;;;;;;1.20;1.10;;;20.70;99.90;;;;;;6166723;23;20020;-94
2022/07/11 13:15:08;;;;;;;2.65;1.10;;;20.90;99.90;;;;;;6185941;23;20060;-92
2022/07/11 13:21:00;;;;;;;3.10;1.20;;;20.40;99.90;;;;;;6184230;23;20028;-91
2022/07/11 13:27:13;;;;;;;1.60;1.08;;;20.30;99.90;;;;;;6183829;23;20024;-92
2022/07/11 13:29:52;;;;;;;2.80;1.10;;;20.30;99.90;;;;;;6159344;23;20044;-92
2022/07/11 13:33:13;;;;;;;1.30;1.20;;;21.10;99.90;;;;;;6160304;23;20333;-91
2022/07/11 13:39:51;;;;;;;1.55;1.23;;;20.30;99.90;;;;;;6116221;23;20148;-92
2022/07/11 14:56:23;;;;;;;3.40;1.40;;;21.40;99.90;;;;;;6160197;23;20017;-90
2022/07/11 14:59:55;;;;;;;4.03;1.40;;;21.50;99.90;;;;;;6184686;23;20024;-91
2022/07/11 15:23:29;;;;;;;;;;;22.30;99.90;;;;;;6157185;23;20025;-92
2022/07/11 15:26:07;;;;;;;3.15;1.50;;;22.00;99.90;;;;;;6154948;23;19920;-90
2022/07/11 15:28:36;;;;;;;2.60;1.40;;;22.50;99.90;;;;;;6129269;23;20354;-89
2022/07/11 15:31:05;;;;;;;3.25;1.25;;;22.90;99.90;;;;;;6154689;23;20469;-91
2022/07/11 15:33:31;;;;;;;1.95;1.30;;;22.30;99.90;;;;;;6155790;23;20013;-90
2022/07/11 15:35:58;;;;;;;3.30;1.35;;;22.90;99.90;;;;;;6129373;23;20525;-91
2022/07/11 15:38:29;;;;;;;3.03;1.30;;;22.30;99.90;;;;;;6130027;23;20068;-88
2022/07/11 15:41:15;;;;;;;3.85;1.30;;;22.20;99.90;;;;;;6130926;23;20022;-96
2022/07/11 15:43:47;;;;;;;2.35;1.30;;;22.60;99.90;;;;;;6129614;23;20447;-89
2022/07/11 15:46:38;;;;;;;5.15;1.50;;;22.50;99.90;;;;;;6156396;23;20021;-93
2022/07/11 15:49:22;;;;;;;3.45;1.40;;;21.70;99.90;;;;;;6129585;23;20063;-94
2022/07/11 15:55:38;;;;;;;4.30;1.60;;;21.80;99.90;;;;;;6154693;23;20140;-93
2022/07/11 16:04:32;;;;;;;5.57;1.50;;;21.80;99.90;;;;;;6036354;23;20044;-93
2022/07/11 16:07:13;;;;;;;4.15;1.60;;;22.10;99.90;;;;;;6012978;23;20468;-93
2022/07/11 16:09:43;;;;;;;2.85;1.35;;;22.00;99.90;;;;;;6106585;23;20057;-93
2022/07/11 16:12:18;;;;;;;3.33;1.40;;;21.80;99.90;;;;;;6158654;23;20048;-93
2022/07/11 16:14:44;;;;;;;2.63;1.30;;;22.50;99.90;;;;;;6184125;23;20433;-92
2022/07/11 16:17:10;;;;;;;4.40;1.60;;;23.20;99.90;;;;;;6186292;23;20021;-93
2022/07/11 16:19:45;;;;;;;1.88;1.30;;;22.80;99.90;;;;;;6187444;23;20023;-92
2022/07/11 16:24:42;;;;;;;3.05;1.42;;;22.30;99.90;;;;;;6184394;23;20021;-92
2022/07/11 16:27:14;;;;;;;2.63;1.38;;;22.20;99.90;;;;;;6190830;23;20044;-93
2022/07/11 16:29:44;;;;;;;3.05;1.33;;;22.20;99.90;;;;;;6159581;23;20017;-93
2022/07/11 16:32:16;;;;;;;3.90;1.50;;;23.10;99.90;;;;;;6159551;23;20537;-91
2022/07/11 16:34:47;;;;;;;2.53;1.30;;;22.80;99.90;;;;;;6159978;23;20017;-92
2022/07/11 16:37:22;;;;;;;2.58;1.50;;;22.80;99.90;;;;;;6164746;23;20024;-93
2022/07/11 16:45:59;;;;;;;3.83;1.40;;;23.30;99.90;;;;;;6159682;23;20013;-91
2022/07/11 16:48:37;;;;;;;3.95;1.45;;;23.60;99.90;;;;;;6159875;23;20052;-93
2022/07/11 16:51:07;;;;;;;2.63;1.30;;;23.50;99.90;;;;;;6186356;23;20055;-92
2022/07/11 16:53:38;;;;;;;1.90;1.20;;;23.20;99.90;;;;;;6187372;23;20009;-95
2022/07/11 16:56:08;;;;;;;2.63;1.30;;;23.70;99.90;;;;;;6161437;23;20057;-94
2022/07/11 16:58:37;;;;;;;2.50;1.30;;;22.70;99.90;;;;;;6187900;23;20052;-92
2022/07/11 17:01:19;;;;;;;2.45;1.23;;;23.10;99.90;;;;;;6159899;23;20345;-92
2022/07/11 17:03:49;;;;;;;3.67;1.40;;;22.80;99.90;;;;;;6159249;23;20060;-92
2022/07/11 17:06:21;;;;;;;3.22;1.40;;;21.80;99.90;;;;;;6159898;23;20472;-92
2022/07/11 17:08:50;;;;;;;3.42;1.38;;;22.10;99.90;;;;;;6159989;23;20021;-92
2022/07/11 17:11:31;;;;;;;3.15;1.40;;;22.10;99.90;;;;;;6185949;23;20024;-93
2022/07/11 17:14:03;;;;;;;2.95;1.40;;;22.80;99.90;;;;;;6159692;23;20077;-93
2022/07/11 17:16:38;;;;;;;2.92;1.50;;;23.50;99.90;;;;;;6186127;23;20048;-93
2022/07/11 17:19:07;;;;;;;3.50;1.38;;;24.20;99.90;;;;;;6186770;23;20025;-93
2022/07/11 17:21:39;;;;;;;2.60;1.38;;;24.70;99.90;;;;;;6137740;23;20052;-92
2022/07/11 17:24:06;;;;;;;2.10;1.27;;;25.00;99.90;;;;;;6188193;23;20025;-92
2022/07/11 17:26:35;;;;;;;6.30;1.50;;;25.70;99.90;;;;;;6173846;23;20004;-90
2022/07/11 17:29:09;;;;;;;2.60;1.30;;;25.10;99.90;;;;;;6186496;23;20013;-93
2022/07/11 17:31:39;;;;;;;2.85;1.30;;;25.20;99.90;;;;;;6206276;23;20017;-93
2022/07/11 17:34:14;;;;;;;4.18;1.55;;;24.70;99.90;;;;;;6170084;23;20024;-93
2022/07/11 17:36:48;;;;;;;3.10;1.40;;;24.40;99.90;;;;;;6188709;23;20024;-94
2022/07/11 17:39:20;;;;;;;3.00;1.30;;;24.60;99.90;;;;;;6160782;23;20099;-93
2022/07/11 17:41:51;;;;;;;1.80;1.33;;;23.60;99.90;;;;;;6160164;23;20039;-92
2022/07/11 17:44:19;;;;;;;4.40;1.52;;;23.20;99.90;;;;;;6186808;23;20015;-93
2022/07/11 17:46:57;;;;;;;3.13;1.55;;;23.30;99.90;;;;;;6159069;23;20028;-93
2022/07/11 17:49:29;;;;;;;3.40;1.45;;;23.50;99.90;;;;;;6160208;23;20051;-92
2022/07/11 17:51:59;;;;;;;2.83;1.50;;;24.10;99.90;;;;;;6186711;23;20017;-94
2022/07/11 17:54:30;;;;;;;3.90;1.40;;;25.00;99.90;;;;;;6185419;23;20028;-94